sensor_id;sensor_type;location;lat;lon;timestamp;P1;durP1;ratioP1;P2;durP2;ratioP2
3726;SDS011;1879;45.876;12.300;2022-10-17T00:01:42;83.97;;;63.00;;
3726;SDS011;1879;45.876;12.300;2022-10-17T00:04:09;77.40;;;58.63;;
3726;SDS011;1879;45.876;12.300;2022-10-17T00:06:36;81.03;;;59.60;;
3726;SDS011;1879;45.876;12.300;2022-10-17T00:09:04;83.27;;;60.40;;
3726;SDS011;1879;45.876;12.300;2022-10-17T00:11:31;76.97;;;58.50;;
3726;SDS011;1879;45.876;12.300;2022-10-17T00:13:59;82.60;;;61.53;;
3726;SDS011;1879;45.876;12.300;2022-10-17T00:16:28;85.43;;;62.57;;
3726;SDS011;1879;45.876;12.300;2022-10-17T00:18:56;83.33;;;60.37;;
3726;SDS011;1879;45.876;12.300;2022-10-17T00:21:24;81.60;;;62.60;;
3726;SDS011;1879;45.876;12.300;2022-10-17T00:23:51;78.97;;;60.30;;
3726;SDS011;1879;45.876;12.300;2022-10-17T00:26:20;83.47;;;62.73;;
3726;SDS011;1879;45.876;12.300;2022-10-17T00:28:48;84.07;;;58.07;;
3726;SDS011;1879;45.876;12.300;2022-10-17T00:31:16;75.60;;;57.83;;
3726;SDS011;1879;45.876;12.300;2022-10-17T00:33:46;85.43;;;65.40;;
3726;SDS011;1879;45.876;12.300;2022-10-17T00:36:14;79.60;;;55.27;;
3726;SDS011;1879;45.876;12.300;2022-10-17T00:38:42;67.07;;;53.67;;
3726;SDS011;1879;45.876;12.300;2022-10-17T00:41:11;86.27;;;60.57;;
3726;SDS011;1879;45.876;12.300;2022-10-17T00:43:56;77.50;;;57.30;;
3726;SDS011;1879;45.876;12.300;2022-10-17T00:46:25;79.67;;;57.10;;
3726;SDS011;1879;45.876;12.300;2022-10-17T00:48:56;75.53;;;58.57;;
3726;SDS011;1879;45.876;12.300;2022-10-17T00:51:27;80.87;;;59.70;;
3726;SDS011;1879;45.876;12.300;2022-10-17T00:53:59;74.30;;;56.90;;
3726;SDS011;1879;45.876;12.300;2022-10-17T00:56:28;77.17;;;57.93;;
3726;SDS011;1879;45.876;12.300;2022-10-17T00:58:56;70.87;;;56.67;;
3726;SDS011;1879;45.876;12.300;2022-10-17T01:01:23;79.03;;;57.83;;
3726;SDS011;1879;45.876;12.300;2022-10-17T01:03:50;78.90;;;56.43;;
3726;SDS011;1879;45.876;12.300;2022-10-17T01:06:18;76.53;;;56.50;;
3726;SDS011;1879;45.876;12.300;2022-10-17T01:08:45;92.53;;;67.07;;
3726;SDS011;1879;45.876;12.300;2022-10-17T01:11:18;73.63;;;54.30;;
3726;SDS011;1879;45.876;12.300;2022-10-17T01:13:54;78.57;;;57.97;;
3726;SDS011;1879;45.876;12.300;2022-10-17T01:16:27;87.40;;;59.40;;
3726;SDS011;1879;45.876;12.300;2022-10-17T01:19:12;78.77;;;58.60;;
3726;SDS011;1879;45.876;12.300;2022-10-17T01:22:06;81.60;;;58.20;;
3726;SDS011;1879;45.876;12.300;2022-10-17T01:24:46;74.57;;;51.50;;
3726;SDS011;1879;45.876;12.300;2022-10-17T01:27:28;71.83;;;53.37;;
3726;SDS011;1879;45.876;12.300;2022-10-17T01:33:27;74.20;;;55.53;;
3726;SDS011;1879;45.876;12.300;2022-10-17T01:35:59;78.07;;;57.20;;
3726;SDS011;1879;45.876;12.300;2022-10-17T01:38:34;72.37;;;52.97;;
3726;SDS011;1879;45.876;12.300;2022-10-17T01:41:10;67.97;;;50.37;;
3726;SDS011;1879;45.876;12.300;2022-10-17T01:43:43;69.50;;;49.10;;
3726;SDS011;1879;45.876;12.300;2022-10-17T01:46:19;67.27;;;50.30;;
3726;SDS011;1879;45.876;12.300;2022-10-17T01:48:50;64.00;;;49.73;;
3726;SDS011;1879;45.876;12.300;2022-10-17T01:51:19;66.77;;;50.43;;
3726;SDS011;1879;45.876;12.300;2022-10-17T01:53:51;70.73;;;51.93;;
3726;SDS011;1879;45.876;12.300;2022-10-17T01:56:22;69.20;;;51.97;;
3726;SDS011;1879;45.876;12.300;2022-10-17T01:58:52;76.80;;;56.00;;
3726;SDS011;1879;45.876;12.300;2022-10-17T02:01:24;73.83;;;53.67;;
3726;SDS011;1879;45.876;12.300;2022-10-17T02:03:53;65.43;;;51.40;;
3726;SDS011;1879;45.876;12.300;2022-10-17T02:06:23;69.50;;;51.60;;
3726;SDS011;1879;45.876;12.300;2022-10-17T02:08:50;76.13;;;56.17;;
3726;SDS011;1879;45.876;12.300;2022-10-17T02:11:18;67.30;;;50.37;;
3726;SDS011;1879;45.876;12.300;2022-10-17T02:14:05;72.00;;;53.73;;
3726;SDS011;1879;45.876;12.300;2022-10-17T02:16:42;68.13;;;50.27;;
3726;SDS011;1879;45.876;12.300;2022-10-17T02:19:24;77.80;;;54.10;;
3726;SDS011;1879;45.876;12.300;2022-10-17T02:22:03;66.27;;;51.60;;
3726;SDS011;1879;45.876;12.300;2022-10-17T02:24:39;69.80;;;55.17;;
3726;SDS011;1879;45.876;12.300;2022-10-17T02:27:14;72.37;;;52.07;;
3726;SDS011;1879;45.876;12.300;2022-10-17T02:29:48;72.63;;;51.30;;
3726;SDS011;1879;45.876;12.300;2022-10-17T02:32:25;62.60;;;50.73;;
3726;SDS011;1879;45.876;12.300;2022-10-17T02:34:59;77.37;;;57.83;;
3726;SDS011;1879;45.876;12.300;2022-10-17T02:37:28;80.13;;;58.47;;
3726;SDS011;1879;45.876;12.300;2022-10-17T02:39:58;83.50;;;56.00;;
3726;SDS011;1879;45.876;12.300;2022-10-17T02:42:27;79.97;;;55.73;;
3726;SDS011;1879;45.876;12.300;2022-10-17T02:44:56;78.80;;;55.17;;
3726;SDS011;1879;45.876;12.300;2022-10-17T02:47:28;86.03;;;60.83;;
3726;SDS011;1879;45.876;12.300;2022-10-17T02:50:00;83.00;;;55.97;;
3726;SDS011;1879;45.876;12.300;2022-10-17T02:52:29;76.33;;;58.70;;
3726;SDS011;1879;45.876;12.300;2022-10-17T02:55:01;82.80;;;58.87;;
3726;SDS011;1879;45.876;12.300;2022-10-17T02:57:33;88.43;;;58.73;;
3726;SDS011;1879;45.876;12.300;2022-10-17T03:00:04;77.87;;;55.60;;
3726;SDS011;1879;45.876;12.300;2022-10-17T03:02:39;79.83;;;58.97;;
3726;SDS011;1879;45.876;12.300;2022-10-17T03:05:08;72.60;;;55.37;;
3726;SDS011;1879;45.876;12.300;2022-10-17T03:07:36;82.47;;;57.93;;
3726;SDS011;1879;45.876;12.300;2022-10-17T03:10:03;79.37;;;54.80;;
3726;SDS011;1879;45.876;12.300;2022-10-17T03:12:31;83.47;;;60.23;;
3726;SDS011;1879;45.876;12.300;2022-10-17T03:14:58;69.77;;;53.53;;
3726;SDS011;1879;45.876;12.300;2022-10-17T03:17:25;78.77;;;57.47;;
3726;SDS011;1879;45.876;12.300;2022-10-17T03:19:53;72.03;;;54.60;;
3726;SDS011;1879;45.876;12.300;2022-10-17T03:22:20;80.63;;;54.17;;
3726;SDS011;1879;45.876;12.300;2022-10-17T03:24:47;65.60;;;48.13;;
3726;SDS011;1879;45.876;12.300;2022-10-17T03:27:14;66.10;;;48.13;;
3726;SDS011;1879;45.876;12.300;2022-10-17T03:29:42;69.90;;;50.83;;
3726;SDS011;1879;45.876;12.300;2022-10-17T03:32:09;67.87;;;51.37;;
3726;SDS011;1879;45.876;12.300;2022-10-17T03:34:36;72.97;;;55.07;;
3726;SDS011;1879;45.876;12.300;2022-10-17T03:37:04;76.23;;;53.20;;
3726;SDS011;1879;45.876;12.300;2022-10-17T03:39:31;69.90;;;51.10;;
3726;SDS011;1879;45.876;12.300;2022-10-17T03:41:58;65.97;;;49.77;;
3726;SDS011;1879;45.876;12.300;2022-10-17T03:44:25;69.00;;;50.40;;
3726;SDS011;1879;45.876;12.300;2022-10-17T03:46:52;69.43;;;51.20;;
3726;SDS011;1879;45.876;12.300;2022-10-17T03:49:19;67.17;;;49.80;;
3726;SDS011;1879;45.876;12.300;2022-10-17T03:51:46;62.53;;;48.90;;
3726;SDS011;1879;45.876;12.300;2022-10-17T03:54:15;65.70;;;50.17;;
3726;SDS011;1879;45.876;12.300;2022-10-17T03:56:42;68.53;;;49.00;;
3726;SDS011;1879;45.876;12.300;2022-10-17T03:59:10;68.60;;;51.63;;
3726;SDS011;1879;45.876;12.300;2022-10-17T04:01:38;70.47;;;50.50;;
3726;SDS011;1879;45.876;12.300;2022-10-17T04:04:05;65.30;;;50.77;;
3726;SDS011;1879;45.876;12.300;2022-10-17T04:06:32;74.47;;;50.63;;
3726;SDS011;1879;45.876;12.300;2022-10-17T04:09:00;67.73;;;48.37;;
3726;SDS011;1879;45.876;12.300;2022-10-17T04:11:30;64.70;;;47.60;;
3726;SDS011;1879;45.876;12.300;2022-10-17T04:13:57;65.63;;;50.20;;
3726;SDS011;1879;45.876;12.300;2022-10-17T04:16:24;68.57;;;50.70;;
3726;SDS011;1879;45.876;12.300;2022-10-17T04:18:52;65.27;;;48.10;;
3726;SDS011;1879;45.876;12.300;2022-10-17T04:21:20;77.13;;;51.50;;
3726;SDS011;1879;45.876;12.300;2022-10-17T04:23:51;63.83;;;45.73;;
3726;SDS011;1879;45.876;12.300;2022-10-17T04:26:19;65.30;;;45.40;;
3726;SDS011;1879;45.876;12.300;2022-10-17T04:28:47;57.30;;;45.80;;
3726;SDS011;1879;45.876;12.300;2022-10-17T04:31:15;66.03;;;48.23;;
3726;SDS011;1879;45.876;12.300;2022-10-17T04:33:42;60.30;;;45.93;;
3726;SDS011;1879;45.876;12.300;2022-10-17T04:36:13;61.70;;;46.23;;
3726;SDS011;1879;45.876;12.300;2022-10-17T04:38:41;64.53;;;48.10;;
3726;SDS011;1879;45.876;12.300;2022-10-17T04:41:10;57.97;;;44.00;;
3726;SDS011;1879;45.876;12.300;2022-10-17T04:43:42;60.83;;;46.13;;
3726;SDS011;1879;45.876;12.300;2022-10-17T04:46:11;56.87;;;44.77;;
3726;SDS011;1879;45.876;12.300;2022-10-17T04:48:39;63.00;;;45.03;;
3726;SDS011;1879;45.876;12.300;2022-10-17T04:51:07;63.30;;;43.90;;
3726;SDS011;1879;45.876;12.300;2022-10-17T04:53:36;61.13;;;44.77;;
3726;SDS011;1879;45.876;12.300;2022-10-17T04:56:08;59.97;;;43.77;;
3726;SDS011;1879;45.876;12.300;2022-10-17T04:58:42;56.33;;;41.67;;
3726;SDS011;1879;45.876;12.300;2022-10-17T05:01:12;54.93;;;41.37;;
3726;SDS011;1879;45.876;12.300;2022-10-17T05:03:40;58.97;;;42.60;;
3726;SDS011;1879;45.876;12.300;2022-10-17T05:06:10;56.70;;;42.20;;
3726;SDS011;1879;45.876;12.300;2022-10-17T05:08:38;59.87;;;41.60;;
3726;SDS011;1879;45.876;12.300;2022-10-17T05:11:12;52.90;;;40.70;;
3726;SDS011;1879;45.876;12.300;2022-10-17T05:13:41;53.80;;;39.37;;
3726;SDS011;1879;45.876;12.300;2022-10-17T05:16:08;51.53;;;40.87;;
3726;SDS011;1879;45.876;12.300;2022-10-17T05:18:37;58.23;;;42.13;;
3726;SDS011;1879;45.876;12.300;2022-10-17T05:21:04;48.23;;;40.27;;
3726;SDS011;1879;45.876;12.300;2022-10-17T05:23:31;53.20;;;39.93;;
3726;SDS011;1879;45.876;12.300;2022-10-17T05:25:58;49.03;;;40.00;;
3726;SDS011;1879;45.876;12.300;2022-10-17T05:28:25;51.13;;;38.93;;
3726;SDS011;1879;45.876;12.300;2022-10-17T05:30:52;50.93;;;40.93;;
3726;SDS011;1879;45.876;12.300;2022-10-17T05:33:21;52.00;;;41.77;;
3726;SDS011;1879;45.876;12.300;2022-10-17T05:35:49;52.93;;;41.57;;
3726;SDS011;1879;45.876;12.300;2022-10-17T05:38:16;47.20;;;39.83;;
3726;SDS011;1879;45.876;12.300;2022-10-17T05:40:43;56.43;;;39.00;;
3726;SDS011;1879;45.876;12.300;2022-10-17T05:43:10;52.30;;;39.90;;
3726;SDS011;1879;45.876;12.300;2022-10-17T05:45:38;49.33;;;38.97;;
3726;SDS011;1879;45.876;12.300;2022-10-17T05:48:05;45.90;;;36.73;;
3726;SDS011;1879;45.876;12.300;2022-10-17T05:50:33;46.80;;;38.00;;
3726;SDS011;1879;45.876;12.300;2022-10-17T05:53:01;43.13;;;36.10;;
3726;SDS011;1879;45.876;12.300;2022-10-17T05:55:29;46.60;;;37.87;;
3726;SDS011;1879;45.876;12.300;2022-10-17T05:57:55;49.50;;;38.77;;
3726;SDS011;1879;45.876;12.300;2022-10-17T06:00:24;45.00;;;35.80;;
3726;SDS011;1879;45.876;12.300;2022-10-17T06:02:51;46.20;;;37.70;;
3726;SDS011;1879;45.876;12.300;2022-10-17T06:05:19;47.60;;;36.67;;
3726;SDS011;1879;45.876;12.300;2022-10-17T06:07:46;46.53;;;37.23;;
3726;SDS011;1879;45.876;12.300;2022-10-17T06:10:15;47.13;;;37.63;;
3726;SDS011;1879;45.876;12.300;2022-10-17T06:12:42;50.43;;;35.87;;
3726;SDS011;1879;45.876;12.300;2022-10-17T06:15:10;45.47;;;35.43;;
3726;SDS011;1879;45.876;12.300;2022-10-17T06:17:37;50.50;;;37.80;;
3726;SDS011;1879;45.876;12.300;2022-10-17T06:20:04;44.90;;;37.40;;
3726;SDS011;1879;45.876;12.300;2022-10-17T06:22:32;47.80;;;35.40;;
3726;SDS011;1879;45.876;12.300;2022-10-17T06:24:59;47.93;;;37.30;;
3726;SDS011;1879;45.876;12.300;2022-10-17T06:27:27;43.93;;;35.87;;
3726;SDS011;1879;45.876;12.300;2022-10-17T06:29:54;41.53;;;35.03;;
3726;SDS011;1879;45.876;12.300;2022-10-17T06:32:21;45.93;;;37.80;;
3726;SDS011;1879;45.876;12.300;2022-10-17T06:34:48;40.63;;;34.07;;
3726;SDS011;1879;45.876;12.300;2022-10-17T06:37:15;43.33;;;34.07;;
3726;SDS011;1879;45.876;12.300;2022-10-17T06:39:42;47.43;;;35.70;;
3726;SDS011;1879;45.876;12.300;2022-10-17T06:42:09;46.90;;;35.73;;
3726;SDS011;1879;45.876;12.300;2022-10-17T06:44:38;44.40;;;38.47;;
3726;SDS011;1879;45.876;12.300;2022-10-17T06:47:05;44.83;;;36.67;;
3726;SDS011;1879;45.876;12.300;2022-10-17T06:49:32;41.57;;;36.13;;
3726;SDS011;1879;45.876;12.300;2022-10-17T06:51:59;41.43;;;34.83;;
3726;SDS011;1879;45.876;12.300;2022-10-17T06:54:26;42.13;;;34.63;;
3726;SDS011;1879;45.876;12.300;2022-10-17T06:56:53;40.83;;;33.53;;
3726;SDS011;1879;45.876;12.300;2022-10-17T06:59:21;42.83;;;33.17;;
3726;SDS011;1879;45.876;12.300;2022-10-17T07:01:49;40.63;;;31.60;;
3726;SDS011;1879;45.876;12.300;2022-10-17T07:04:16;38.33;;;32.00;;
3726;SDS011;1879;45.876;12.300;2022-10-17T07:06:43;40.40;;;30.37;;
3726;SDS011;1879;45.876;12.300;2022-10-17T07:09:10;36.13;;;30.10;;
3726;SDS011;1879;45.876;12.300;2022-10-17T07:11:37;36.37;;;31.73;;
3726;SDS011;1879;45.876;12.300;2022-10-17T07:14:05;39.00;;;32.77;;
3726;SDS011;1879;45.876;12.300;2022-10-17T07:16:32;38.87;;;32.40;;
3726;SDS011;1879;45.876;12.300;2022-10-17T07:19:00;46.50;;;34.20;;
3726;SDS011;1879;45.876;12.300;2022-10-17T07:21:27;43.20;;;35.27;;
3726;SDS011;1879;45.876;12.300;2022-10-17T07:23:54;36.33;;;32.23;;
3726;SDS011;1879;45.876;12.300;2022-10-17T07:26:21;43.47;;;34.60;;
3726;SDS011;1879;45.876;12.300;2022-10-17T07:28:50;42.57;;;33.70;;
3726;SDS011;1879;45.876;12.300;2022-10-17T07:31:19;42.30;;;36.03;;
3726;SDS011;1879;45.876;12.300;2022-10-17T07:33:48;40.37;;;35.10;;
3726;SDS011;1879;45.876;12.300;2022-10-17T07:36:17;42.87;;;33.47;;
3726;SDS011;1879;45.876;12.300;2022-10-17T07:38:44;40.87;;;33.40;;
3726;SDS011;1879;45.876;12.300;2022-10-17T07:41:11;43.13;;;34.50;;
3726;SDS011;1879;45.876;12.300;2022-10-17T07:43:38;38.43;;;33.20;;
3726;SDS011;1879;45.876;12.300;2022-10-17T07:46:07;42.97;;;35.03;;
3726;SDS011;1879;45.876;12.300;2022-10-17T07:48:35;37.70;;;32.60;;
3726;SDS011;1879;45.876;12.300;2022-10-17T07:51:04;39.57;;;34.30;;
3726;SDS011;1879;45.876;12.300;2022-10-17T07:53:35;40.27;;;33.23;;
3726;SDS011;1879;45.876;12.300;2022-10-17T07:56:03;40.10;;;33.97;;
3726;SDS011;1879;45.876;12.300;2022-10-17T07:58:31;36.67;;;32.27;;
3726;SDS011;1879;45.876;12.300;2022-10-17T08:00:59;35.90;;;31.87;;
3726;SDS011;1879;45.876;12.300;2022-10-17T08:03:27;36.63;;;32.63;;
3726;SDS011;1879;45.876;12.300;2022-10-17T08:05:56;36.53;;;32.53;;
3726;SDS011;1879;45.876;12.300;2022-10-17T08:08:24;39.23;;;32.10;;
3726;SDS011;1879;45.876;12.300;2022-10-17T08:10:52;33.83;;;30.23;;
3726;SDS011;1879;45.876;12.300;2022-10-17T08:13:20;33.90;;;30.23;;
3726;SDS011;1879;45.876;12.300;2022-10-17T08:15:47;34.63;;;30.63;;
3726;SDS011;1879;45.876;12.300;2022-10-17T08:18:14;34.27;;;30.57;;
3726;SDS011;1879;45.876;12.300;2022-10-17T08:20:42;36.30;;;32.00;;
3726;SDS011;1879;45.876;12.300;2022-10-17T08:23:09;32.87;;;29.07;;
3726;SDS011;1879;45.876;12.300;2022-10-17T08:25:36;33.33;;;29.70;;
3726;SDS011;1879;45.876;12.300;2022-10-17T08:28:05;32.60;;;28.60;;
3726;SDS011;1879;45.876;12.300;2022-10-17T08:30:32;32.17;;;28.67;;
3726;SDS011;1879;45.876;12.300;2022-10-17T08:33:00;30.77;;;27.47;;
3726;SDS011;1879;45.876;12.300;2022-10-17T08:35:27;28.83;;;25.83;;
3726;SDS011;1879;45.876;12.300;2022-10-17T08:37:54;29.70;;;26.60;;
3726;SDS011;1879;45.876;12.300;2022-10-17T08:40:25;30.90;;;26.93;;
3726;SDS011;1879;45.876;12.300;2022-10-17T08:43:05;29.57;;;26.47;;
3726;SDS011;1879;45.876;12.300;2022-10-17T08:45:44;31.23;;;25.07;;
3726;SDS011;1879;45.876;12.300;2022-10-17T08:48:16;29.07;;;24.67;;
3726;SDS011;1879;45.876;12.300;2022-10-17T08:50:45;29.07;;;25.60;;
3726;SDS011;1879;45.876;12.300;2022-10-17T08:53:16;28.80;;;25.20;;
3726;SDS011;1879;45.876;12.300;2022-10-17T08:55:48;28.53;;;25.63;;
3726;SDS011;1879;45.876;12.300;2022-10-17T08:58:18;27.13;;;24.30;;
3726;SDS011;1879;45.876;12.300;2022-10-17T09:00:48;26.27;;;23.63;;
3726;SDS011;1879;45.876;12.300;2022-10-17T09:03:26;27.50;;;24.60;;
3726;SDS011;1879;45.876;12.300;2022-10-17T09:06:14;29.40;;;23.60;;
3726;SDS011;1879;45.876;12.300;2022-10-17T09:08:48;28.20;;;25.30;;
3726;SDS011;1879;45.876;12.300;2022-10-17T09:11:31;29.80;;;26.60;;
3726;SDS011;1879;45.876;12.300;2022-10-17T09:14:11;28.40;;;25.40;;
3726;SDS011;1879;45.876;12.300;2022-10-17T09:17:13;22.80;;;20.50;;
3726;SDS011;1879;45.876;12.300;2022-10-17T09:19:48;28.60;;;25.70;;
3726;SDS011;1879;45.876;12.300;2022-10-17T09:22:23;29.70;;;26.33;;
3726;SDS011;1879;45.876;12.300;2022-10-17T09:24:54;27.27;;;24.30;;
3726;SDS011;1879;45.876;12.300;2022-10-17T09:27:25;28.40;;;25.60;;
3726;SDS011;1879;45.876;12.300;2022-10-17T09:30:16;28.83;;;25.47;;
3726;SDS011;1879;45.876;12.300;2022-10-17T09:32:53;27.67;;;24.80;;
3726;SDS011;1879;45.876;12.300;2022-10-17T09:35:20;27.73;;;23.87;;
3726;SDS011;1879;45.876;12.300;2022-10-17T09:37:48;26.57;;;23.77;;
3726;SDS011;1879;45.876;12.300;2022-10-17T09:40:18;24.63;;;20.10;;
3726;SDS011;1879;45.876;12.300;2022-10-17T09:42:48;26.37;;;23.20;;
3726;SDS011;1879;45.876;12.300;2022-10-17T09:45:18;27.67;;;24.87;;
3726;SDS011;1879;45.876;12.300;2022-10-17T09:47:50;29.50;;;26.50;;
3726;SDS011;1879;45.876;12.300;2022-10-17T09:50:24;26.63;;;23.93;;
3726;SDS011;1879;45.876;12.300;2022-10-17T09:52:53;24.33;;;19.67;;
3726;SDS011;1879;45.876;12.300;2022-10-17T09:55:25;22.03;;;19.73;;
3726;SDS011;1879;45.876;12.300;2022-10-17T09:58:00;19.87;;;17.87;;
3726;SDS011;1879;45.876;12.300;2022-10-17T10:00:31;30.20;;;27.30;;
3726;SDS011;1879;45.876;12.300;2022-10-17T10:03:09;29.53;;;26.53;;
3726;SDS011;1879;45.876;12.300;2022-10-17T10:05:41;29.37;;;26.50;;
3726;SDS011;1879;45.876;12.300;2022-10-17T10:08:22;30.57;;;27.27;;
3726;SDS011;1879;45.876;12.300;2022-10-17T10:10:56;34.33;;;28.03;;
3726;SDS011;1879;45.876;12.300;2022-10-17T10:13:27;25.63;;;23.03;;
3726;SDS011;1879;45.876;12.300;2022-10-17T10:16:11;32.83;;;29.53;;
3726;SDS011;1879;45.876;12.300;2022-10-17T10:18:43;24.87;;;22.00;;
3726;SDS011;1879;45.876;12.300;2022-10-17T10:21:12;26.43;;;22.10;;
3726;SDS011;1879;45.876;12.300;2022-10-17T10:23:40;24.00;;;21.50;;
3726;SDS011;1879;45.876;12.300;2022-10-17T10:26:19;30.77;;;27.67;;
3726;SDS011;1879;45.876;12.300;2022-10-17T10:28:52;34.03;;;29.23;;
3726;SDS011;1879;45.876;12.300;2022-10-17T10:31:27;34.53;;;29.57;;
3726;SDS011;1879;45.876;12.300;2022-10-17T10:34:00;30.20;;;27.17;;
3726;SDS011;1879;45.876;12.300;2022-10-17T10:36:44;29.50;;;26.57;;
3726;SDS011;1879;45.876;12.300;2022-10-17T10:39:20;30.77;;;27.43;;
3726;SDS011;1879;45.876;12.300;2022-10-17T10:41:56;30.70;;;27.60;;
3726;SDS011;1879;45.876;12.300;2022-10-17T10:44:23;32.13;;;28.83;;
3726;SDS011;1879;45.876;12.300;2022-10-17T10:47:08;29.73;;;26.73;;
3726;SDS011;1879;45.876;12.300;2022-10-17T10:49:42;28.67;;;25.77;;
3726;SDS011;1879;45.876;12.300;2022-10-17T10:52:11;29.37;;;26.33;;
3726;SDS011;1879;45.876;12.300;2022-10-17T10:54:48;29.60;;;26.60;;
3726;SDS011;1879;45.876;12.300;2022-10-17T10:57:21;28.27;;;25.57;;
3726;SDS011;1879;45.876;12.300;2022-10-17T10:59:54;27.20;;;24.60;;
3726;SDS011;1879;45.876;12.300;2022-10-17T11:02:29;27.60;;;24.80;;
3726;SDS011;1879;45.876;12.300;2022-10-17T11:05:03;25.90;;;23.23;;
3726;SDS011;1879;45.876;12.300;2022-10-17T11:07:55;26.20;;;23.70;;
3726;SDS011;1879;45.876;12.300;2022-10-17T11:10:29;25.30;;;22.77;;
3726;SDS011;1879;45.876;12.300;2022-10-17T11:13:03;24.33;;;22.03;;
3726;SDS011;1879;45.876;12.300;2022-10-17T11:15:35;27.10;;;24.60;;
3726;SDS011;1879;45.876;12.300;2022-10-17T11:18:09;25.97;;;23.30;;
3726;SDS011;1879;45.876;12.300;2022-10-17T11:20:43;27.13;;;23.90;;
3726;SDS011;1879;45.876;12.300;2022-10-17T11:23:18;27.13;;;24.83;;
3726;SDS011;1879;45.876;12.300;2022-10-17T11:25:50;26.37;;;23.93;;
3726;SDS011;1879;45.876;12.300;2022-10-17T11:28:19;25.40;;;23.20;;
3726;SDS011;1879;45.876;12.300;2022-10-17T11:30:49;25.60;;;23.40;;
3726;SDS011;1879;45.876;12.300;2022-10-17T11:33:23;22.30;;;20.50;;
3726;SDS011;1879;45.876;12.300;2022-10-17T11:35:54;23.63;;;21.43;;
3726;SDS011;1879;45.876;12.300;2022-10-17T11:38:28;24.23;;;22.13;;
3726;SDS011;1879;45.876;12.300;2022-10-17T11:41:03;23.50;;;21.40;;
3726;SDS011;1879;45.876;12.300;2022-10-17T11:43:32;22.80;;;20.80;;
3726;SDS011;1879;45.876;12.300;2022-10-17T11:46:04;23.53;;;21.63;;
3726;SDS011;1879;45.876;12.300;2022-10-17T11:48:40;22.73;;;20.83;;
3726;SDS011;1879;45.876;12.300;2022-10-17T11:51:11;25.13;;;23.00;;
3726;SDS011;1879;45.876;12.300;2022-10-17T11:53:44;23.33;;;21.13;;
3726;SDS011;1879;45.876;12.300;2022-10-17T11:56:14;22.10;;;20.40;;
3726;SDS011;1879;45.876;12.300;2022-10-17T11:58:47;22.57;;;20.67;;
3726;SDS011;1879;45.876;12.300;2022-10-17T12:01:21;19.93;;;18.30;;
3726;SDS011;1879;45.876;12.300;2022-10-17T12:04:03;20.93;;;19.20;;
3726;SDS011;1879;45.876;12.300;2022-10-17T12:06:46;20.20;;;18.60;;
3726;SDS011;1879;45.876;12.300;2022-10-17T12:09:24;19.77;;;18.07;;
3726;SDS011;1879;45.876;12.300;2022-10-17T12:11:58;20.20;;;18.60;;
3726;SDS011;1879;45.876;12.300;2022-10-17T12:14:34;18.83;;;17.33;;
3726;SDS011;1879;45.876;12.300;2022-10-17T12:17:03;19.33;;;17.73;;
3726;SDS011;1879;45.876;12.300;2022-10-17T12:19:47;19.63;;;18.07;;
3726;SDS011;1879;45.876;12.300;2022-10-17T12:22:18;20.57;;;18.87;;
3726;SDS011;1879;45.876;12.300;2022-10-17T12:24:58;20.30;;;18.50;;
3726;SDS011;1879;45.876;12.300;2022-10-17T12:27:42;19.90;;;18.30;;
3726;SDS011;1879;45.876;12.300;2022-10-17T12:30:22;19.20;;;17.70;;
3726;SDS011;1879;45.876;12.300;2022-10-17T12:35:47;18.47;;;16.97;;
3726;SDS011;1879;45.876;12.300;2022-10-17T12:38:25;20.33;;;18.70;;
3726;SDS011;1879;45.876;12.300;2022-10-17T12:40:54;18.63;;;17.03;;
3726;SDS011;1879;45.876;12.300;2022-10-17T12:43:44;20.77;;;18.53;;
3726;SDS011;1879;45.876;12.300;2022-10-17T12:49:19;20.00;;;18.40;;
3726;SDS011;1879;45.876;12.300;2022-10-17T13:53:53;17.63;;;16.03;;
3726;SDS011;1879;45.876;12.300;2022-10-17T13:56:20;17.10;;;15.60;;
3726;SDS011;1879;45.876;12.300;2022-10-17T13:58:50;19.50;;;18.00;;
3726;SDS011;1879;45.876;12.300;2022-10-17T14:01:20;18.70;;;17.20;;
3726;SDS011;1879;45.876;12.300;2022-10-17T14:03:48;18.87;;;17.27;;
3726;SDS011;1879;45.876;12.300;2022-10-17T14:06:17;18.43;;;16.57;;
3726;SDS011;1879;45.876;12.300;2022-10-17T14:08:47;15.83;;;14.43;;
3726;SDS011;1879;45.876;12.300;2022-10-17T14:11:23;17.30;;;15.70;;
3726;SDS011;1879;45.876;12.300;2022-10-17T14:13:54;17.07;;;14.93;;
3726;SDS011;1879;45.876;12.300;2022-10-17T14:16:23;18.43;;;16.93;;
3726;SDS011;1879;45.876;12.300;2022-10-17T14:18:51;18.57;;;16.80;;
3726;SDS011;1879;45.876;12.300;2022-10-17T14:21:21;17.13;;;15.63;;
3726;SDS011;1879;45.876;12.300;2022-10-17T14:23:49;18.80;;;16.93;;
3726;SDS011;1879;45.876;12.300;2022-10-17T14:26:19;20.37;;;18.27;;
3726;SDS011;1879;45.876;12.300;2022-10-17T14:28:49;20.37;;;18.37;;
3726;SDS011;1879;45.876;12.300;2022-10-17T14:31:28;20.53;;;18.50;;
3726;SDS011;1879;45.876;12.300;2022-10-17T14:33:57;20.63;;;18.73;;
3726;SDS011;1879;45.876;12.300;2022-10-17T14:36:32;21.00;;;19.00;;
3726;SDS011;1879;45.876;12.300;2022-10-17T14:56:59;22.30;;;20.10;;
3726;SDS011;1879;45.876;12.300;2022-10-17T14:59:42;22.10;;;20.03;;
3726;SDS011;1879;45.876;12.300;2022-10-17T15:02:09;23.17;;;21.07;;
3726;SDS011;1879;45.876;12.300;2022-10-17T15:04:36;21.03;;;19.10;;
3726;SDS011;1879;45.876;12.300;2022-10-17T15:07:03;22.10;;;20.00;;
3726;SDS011;1879;45.876;12.300;2022-10-17T15:09:30;21.70;;;19.70;;
3726;SDS011;1879;45.876;12.300;2022-10-17T15:11:59;23.17;;;20.93;;
3726;SDS011;1879;45.876;12.300;2022-10-17T15:14:27;22.60;;;20.50;;
3726;SDS011;1879;45.876;12.300;2022-10-17T15:16:55;21.47;;;19.40;;
3726;SDS011;1879;45.876;12.300;2022-10-17T15:19:22;21.67;;;19.37;;
3726;SDS011;1879;45.876;12.300;2022-10-17T15:21:49;20.90;;;18.90;;
3726;SDS011;1879;45.876;12.300;2022-10-17T15:24:16;23.43;;;21.13;;
3726;SDS011;1879;45.876;12.300;2022-10-17T15:26:43;20.80;;;18.70;;
3726;SDS011;1879;45.876;12.300;2022-10-17T15:29:11;22.73;;;20.50;;
3726;SDS011;1879;45.876;12.300;2022-10-17T15:31:40;22.20;;;19.73;;
3726;SDS011;1879;45.876;12.300;2022-10-17T15:34:07;20.30;;;18.50;;
3726;SDS011;1879;45.876;12.300;2022-10-17T15:36:37;22.60;;;20.50;;
3726;SDS011;1879;45.876;12.300;2022-10-17T15:39:05;23.27;;;20.87;;
3726;SDS011;1879;45.876;12.300;2022-10-17T15:41:32;21.17;;;19.10;;
3726;SDS011;1879;45.876;12.300;2022-10-17T15:43:59;20.90;;;19.00;;
3726;SDS011;1879;45.876;12.300;2022-10-17T15:46:28;21.33;;;19.33;;
3726;SDS011;1879;45.876;12.300;2022-10-17T15:49:00;23.00;;;20.57;;
3726;SDS011;1879;45.876;12.300;2022-10-17T15:51:28;21.87;;;19.60;;
3726;SDS011;1879;45.876;12.300;2022-10-17T15:53:55;22.30;;;20.20;;
3726;SDS011;1879;45.876;12.300;2022-10-17T15:56:25;24.47;;;20.70;;
3726;SDS011;1879;45.876;12.300;2022-10-17T15:58:54;23.03;;;20.70;;
3726;SDS011;1879;45.876;12.300;2022-10-17T16:01:23;23.50;;;21.37;;
3726;SDS011;1879;45.876;12.300;2022-10-17T16:03:53;24.87;;;21.80;;
3726;SDS011;1879;45.876;12.300;2022-10-17T16:06:21;24.27;;;21.80;;
3726;SDS011;1879;45.876;12.300;2022-10-17T16:08:49;25.27;;;22.87;;
3726;SDS011;1879;45.876;12.300;2022-10-17T16:11:20;25.53;;;23.13;;
3726;SDS011;1879;45.876;12.300;2022-10-17T16:13:53;24.50;;;21.93;;
3726;SDS011;1879;45.876;12.300;2022-10-17T16:16:22;23.20;;;21.10;;
3726;SDS011;1879;45.876;12.300;2022-10-17T16:18:48;23.63;;;21.20;;
3726;SDS011;1879;45.876;12.300;2022-10-17T16:21:18;24.17;;;21.57;;
3726;SDS011;1879;45.876;12.300;2022-10-17T16:23:49;22.37;;;20.07;;